sensor_id;sensor_type;location;lat;lon;timestamp;temperature;humidity
25482;DHT22;13395;50.752;4.268;2022-12-18T00:01:24;-3.20;99.90
25482;DHT22;13395;50.752;4.268;2022-12-18T00:03:50;-3.20;99.90
25482;DHT22;13395;50.752;4.268;2022-12-18T00:06:17;-3.20;99.90
25482;DHT22;13395;50.752;4.268;2022-12-18T00:08:43;-3.20;99.90
25482;DHT22;13395;50.752;4.268;2022-12-18T00:11:12;-3.30;99.90
25482;DHT22;13395;50.752;4.268;2022-12-18T00:13:38;-3.40;99.90
25482;DHT22;13395;50.752;4.268;2022-12-18T00:16:06;-3.30;99.90
25482;DHT22;13395;50.752;4.268;2022-12-18T00:18:34;-3.30;99.90
25482;DHT22;13395;50.752;4.268;2022-12-18T00:21:01;-3.40;99.90
25482;DHT22;13395;50.752;4.268;2022-12-18T00:23:28;-3.40;99.90
25482;DHT22;13395;50.752;4.268;2022-12-18T00:25:54;-3.40;99.90
25482;DHT22;13395;50.752;4.268;2022-12-18T00:28:20;-3.50;99.90
25482;DHT22;13395;50.752;4.268;2022-12-18T00:30:45;-3.60;99.90
25482;DHT22;13395;50.752;4.268;2022-12-18T00:33:11;-3.60;99.90
25482;DHT22;13395;50.752;4.268;2022-12-18T00:35:36;-3.60;99.90
25482;DHT22;13395;50.752;4.268;2022-12-18T00:38:02;-3.60;99.90
25482;DHT22;13395;50.752;4.268;2022-12-18T00:40:28;-3.60;99.90
25482;DHT22;13395;50.752;4.268;2022-12-18T00:42:53;-3.60;99.90
25482;DHT22;13395;50.752;4.268;2022-12-18T00:45:27;-3.60;99.90
25482;DHT22;13395;50.752;4.268;2022-12-18T00:47:53;-3.60;99.90
25482;DHT22;13395;50.752;4.268;2022-12-18T00:50:19;-3.60;99.90
25482;DHT22;13395;50.752;4.268;2022-12-18T00:52:45;-3.70;99.90
25482;DHT22;13395;50.752;4.268;2022-12-18T00:55:10;-3.70;99.90
25482;DHT22;13395;50.752;4.268;2022-12-18T00:57:36;-3.80;99.90
25482;DHT22;13395;50.752;4.268;2022-12-18T01:00:05;-3.80;99.90
25482;DHT22;13395;50.752;4.268;2022-12-18T01:02:31;-3.90;99.90
25482;DHT22;13395;50.752;4.268;2022-12-18T01:04:56;-3.90;99.90
25482;DHT22;13395;50.752;4.268;2022-12-18T01:07:22;-3.90;99.90
25482;DHT22;13395;50.752;4.268;2022-12-18T01:09:48;-3.90;99.90
25482;DHT22;13395;50.752;4.268;2022-12-18T01:12:13;-4.00;99.90
25482;DHT22;13395;50.752;4.268;2022-12-18T01:14:39;-4.00;99.90
25482;DHT22;13395;50.752;4.268;2022-12-18T01:17:04;-3.90;99.90
25482;DHT22;13395;50.752;4.268;2022-12-18T01:19:30;-4.00;99.90
25482;DHT22;13395;50.752;4.268;2022-12-18T01:21:56;-4.00;99.90
25482;DHT22;13395;50.752;4.268;2022-12-18T01:24:21;-4.00;99.90
25482;DHT22;13395;50.752;4.268;2022-12-18T01:26:47;-4.10;99.90
25482;DHT22;13395;50.752;4.268;2022-12-18T01:29:13;-4.10;99.90
25482;DHT22;13395;50.752;4.268;2022-12-18T01:31:38;-4.00;99.90
25482;DHT22;13395;50.752;4.268;2022-12-18T01:34:05;-4.00;99.90
25482;DHT22;13395;50.752;4.268;2022-12-18T01:36:32;-3.90;99.90
25482;DHT22;13395;50.752;4.268;2022-12-18T01:39:04;-3.90;99.90
25482;DHT22;13395;50.752;4.268;2022-12-18T01:41:31;-3.90;99.90
25482;DHT22;13395;50.752;4.268;2022-12-18T01:50:00;-3.90;99.90
25482;DHT22;13395;50.752;4.268;2022-12-18T01:52:29;-4.00;99.90
25482;DHT22;13395;50.752;4.268;2022-12-18T01:54:56;-4.00;99.90
25482;DHT22;13395;50.752;4.268;2022-12-18T01:57:23;-4.00;99.90
25482;DHT22;13395;50.752;4.268;2022-12-18T01:59:52;-4.00;99.90
25482;DHT22;13395;50.752;4.268;2022-12-18T02:02:19;-4.00;99.90
25482;DHT22;13395;50.752;4.268;2022-12-18T02:04:45;-4.10;99.90
25482;DHT22;13395;50.752;4.268;2022-12-18T02:07:23;-4.10;99.90
25482;DHT22;13395;50.752;4.268;2022-12-18T02:10:24;-4.20;99.90
25482;DHT22;13395;50.752;4.268;2022-12-18T02:13:02;-4.20;99.90
25482;DHT22;13395;50.752;4.268;2022-12-18T02:15:41;-4.10;99.90
25482;DHT22;13395;50.752;4.268;2022-12-18T02:18:24;-4.10;99.90
25482;DHT22;13395;50.752;4.268;2022-12-18T02:21:02;-4.10;99.90
25482;DHT22;13395;50.752;4.268;2022-12-18T02:28:50;-4.10;99.90
25482;DHT22;13395;50.752;4.268;2022-12-18T02:31:21;-4.20;99.90
25482;DHT22;13395;50.752;4.268;2022-12-18T02:33:49;-4.20;99.90
25482;DHT22;13395;50.752;4.268;2022-12-18T02:36:17;-4.30;99.90
25482;DHT22;13395;50.752;4.268;2022-12-18T02:38:44;-4.40;99.90
25482;DHT22;13395;50.752;4.268;2022-12-18T02:41:11;-4.50;99.90
25482;DHT22;13395;50.752;4.268;2022-12-18T02:43:38;-4.50;99.90
25482;DHT22;13395;50.752;4.268;2022-12-18T02:46:25;-4.40;99.90
25482;DHT22;13395;50.752;4.268;2022-12-18T02:48:52;-4.40;99.90
25482;DHT22;13395;50.752;4.268;2022-12-18T02:51:37;-4.40;99.90
25482;DHT22;13395;50.752;4.268;2022-12-18T02:54:23;-4.50;99.90
25482;DHT22;13395;50.752;4.268;2022-12-18T02:56:54;-4.60;99.90
25482;DHT22;13395;50.752;4.268;2022-12-18T02:59:30;-4.60;99.90
25482;DHT22;13395;50.752;4.268;2022-12-18T03:02:26;-4.60;99.90
25482;DHT22;13395;50.752;4.268;2022-12-18T03:05:20;-4.60;99.90
25482;DHT22;13395;50.752;4.268;2022-12-18T03:07:58;-4.60;99.90
25482;DHT22;13395;50.752;4.268;2022-12-18T03:10:29;-4.70;99.90
25482;DHT22;13395;50.752;4.268;2022-12-18T03:13:23;-4.70;99.90
25482;DHT22;13395;50.752;4.268;2022-12-18T03:15:50;-4.80;99.90
25482;DHT22;13395;50.752;4.268;2022-12-18T03:18:25;-4.80;99.90
25482;DHT22;13395;50.752;4.268;2022-12-18T03:20:55;-4.80;99.90
25482;DHT22;13395;50.752;4.268;2022-12-18T03:23:25;-4.80;99.90
25482;DHT22;13395;50.752;4.268;2022-12-18T03:25:54;-4.80;99.90
25482;DHT22;13395;50.752;4.268;2022-12-18T03:28:22;-4.70;99.90
25482;DHT22;13395;50.752;4.268;2022-12-18T03:30:54;-4.80;99.90
25482;DHT22;13395;50.752;4.268;2022-12-18T03:34:10;-4.80;99.90
25482;DHT22;13395;50.752;4.268;2022-12-18T03:36:16;-4.80;99.90
25482;DHT22;13395;50.752;4.268;2022-12-18T03:38:41;-4.80;99.90
25482;DHT22;13395;50.752;4.268;2022-12-18T03:41:15;-4.90;99.90
25482;DHT22;13395;50.752;4.268;2022-12-18T03:46:30;-4.90;99.90
25482;DHT22;13395;50.752;4.268;2022-12-18T03:49:02;-4.90;99.90
25482;DHT22;13395;50.752;4.268;2022-12-18T03:51:40;-4.90;99.90
25482;DHT22;13395;50.752;4.268;2022-12-18T03:54:09;-5.00;99.90
25482;DHT22;13395;50.752;4.268;2022-12-18T03:56:44;-5.00;99.90
25482;DHT22;13395;50.752;4.268;2022-12-18T03:59:12;-4.90;99.90
25482;DHT22;13395;50.752;4.268;2022-12-18T04:01:42;-4.90;99.90
25482;DHT22;13395;50.752;4.268;2022-12-18T04:04:10;-5.00;99.90
25482;DHT22;13395;50.752;4.268;2022-12-18T04:06:37;-5.00;99.90
25482;DHT22;13395;50.752;4.268;2022-12-18T04:09:04;-5.00;99.90
25482;DHT22;13395;50.752;4.268;2022-12-18T04:11:30;-5.00;99.90
25482;DHT22;13395;50.752;4.268;2022-12-18T04:13:56;-4.90;99.90
25482;DHT22;13395;50.752;4.268;2022-12-18T04:16:23;-4.90;99.90
25482;DHT22;13395;50.752;4.268;2022-12-18T04:18:49;-5.00;99.90
25482;DHT22;13395;50.752;4.268;2022-12-18T04:21:15;-5.00;99.90
25482;DHT22;13395;50.752;4.268;2022-12-18T04:23:40;-5.00;99.90
25482;DHT22;13395;50.752;4.268;2022-12-18T04:26:06;-5.00;99.90
25482;DHT22;13395;50.752;4.268;2022-12-18T04:28:32;-5.10;99.90
25482;DHT22;13395;50.752;4.268;2022-12-18T04:30:57;-5.00;99.90
25482;DHT22;13395;50.752;4.268;2022-12-18T04:33:23;-5.00;99.90
25482;DHT22;13395;50.752;4.268;2022-12-18T04:35:48;-5.10;99.90
25482;DHT22;13395;50.752;4.268;2022-12-18T04:38:14;-5.00;99.90
25482;DHT22;13395;50.752;4.268;2022-12-18T04:40:40;-5.10;99.90
25482;DHT22;13395;50.752;4.268;2022-12-18T04:43:05;-5.10;99.90
25482;DHT22;13395;50.752;4.268;2022-12-18T04:45:31;-5.10;99.90
25482;DHT22;13395;50.752;4.268;2022-12-18T04:47:59;-5.20;99.90
25482;DHT22;13395;50.752;4.268;2022-12-18T04:50:26;-5.30;99.90
25482;DHT22;13395;50.752;4.268;2022-12-18T04:52:51;-5.30;99.90
25482;DHT22;13395;50.752;4.268;2022-12-18T04:55:17;-5.30;99.90
25482;DHT22;13395;50.752;4.268;2022-12-18T04:57:43;-5.20;99.90
25482;DHT22;13395;50.752;4.268;2022-12-18T05:00:09;-5.20;99.90
25482;DHT22;13395;50.752;4.268;2022-12-18T05:02:35;-5.40;99.90
25482;DHT22;13395;50.752;4.268;2022-12-18T05:05:00;-5.50;99.90
25482;DHT22;13395;50.752;4.268;2022-12-18T05:07:26;-5.40;99.90
25482;DHT22;13395;50.752;4.268;2022-12-18T05:09:52;-5.30;99.90
25482;DHT22;13395;50.752;4.268;2022-12-18T05:12:17;-5.30;99.90
25482;DHT22;13395;50.752;4.268;2022-12-18T05:14:43;-5.20;99.90
25482;DHT22;13395;50.752;4.268;2022-12-18T05:17:08;-5.60;99.90
25482;DHT22;13395;50.752;4.268;2022-12-18T05:19:34;-5.70;99.90
25482;DHT22;13395;50.752;4.268;2022-12-18T05:22:00;-5.50;99.90
25482;DHT22;13395;50.752;4.268;2022-12-18T05:24:26;-5.50;99.90
25482;DHT22;13395;50.752;4.268;2022-12-18T05:26:52;-5.40;99.90
25482;DHT22;13395;50.752;4.268;2022-12-18T05:29:17;-5.40;99.90
25482;DHT22;13395;50.752;4.268;2022-12-18T05:31:43;-5.50;99.90
25482;DHT22;13395;50.752;4.268;2022-12-18T05:34:09;-5.50;99.90
25482;DHT22;13395;50.752;4.268;2022-12-18T05:36:34;-5.50;99.90
25482;DHT22;13395;50.752;4.268;2022-12-18T05:39:00;-5.60;99.90
25482;DHT22;13395;50.752;4.268;2022-12-18T05:41:26;-5.60;99.90
25482;DHT22;13395;50.752;4.268;2022-12-18T05:43:52;-5.60;99.90
25482;DHT22;13395;50.752;4.268;2022-12-18T05:46:18;-5.50;99.90
25482;DHT22;13395;50.752;4.268;2022-12-18T05:48:44;-5.50;99.90
25482;DHT22;13395;50.752;4.268;2022-12-18T05:51:12;-5.50;99.90
25482;DHT22;13395;50.752;4.268;2022-12-18T05:53:40;-5.50;99.90
25482;DHT22;13395;50.752;4.268;2022-12-18T05:56:09;-5.50;99.90
25482;DHT22;13395;50.752;4.268;2022-12-18T05:58:35;-5.60;99.90
25482;DHT22;13395;50.752;4.268;2022-12-18T06:01:15;-5.60;99.90
25482;DHT22;13395;50.752;4.268;2022-12-18T06:03:42;-5.70;99.90
25482;DHT22;13395;50.752;4.268;2022-12-18T06:06:21;-5.60;99.90
25482;DHT22;13395;50.752;4.268;2022-12-18T06:08:48;-5.60;99.90
25482;DHT22;13395;50.752;4.268;2022-12-18T06:11:18;-5.60;99.90
25482;DHT22;13395;50.752;4.268;2022-12-18T06:13:44;-5.70;99.90
25482;DHT22;13395;50.752;4.268;2022-12-18T06:16:09;-5.70;99.90
25482;DHT22;13395;50.752;4.268;2022-12-18T06:18:35;-5.60;99.90
25482;DHT22;13395;50.752;4.268;2022-12-18T06:21:01;-5.60;99.90
25482;DHT22;13395;50.752;4.268;2022-12-18T06:23:27;-5.60;99.90
25482;DHT22;13395;50.752;4.268;2022-12-18T06:25:53;-5.50;99.90
25482;DHT22;13395;50.752;4.268;2022-12-18T06:28:19;-5.50;99.90
25482;DHT22;13395;50.752;4.268;2022-12-18T06:30:46;-5.60;99.90
25482;DHT22;13395;50.752;4.268;2022-12-18T06:33:12;-5.60;99.90
25482;DHT22;13395;50.752;4.268;2022-12-18T06:35:38;-5.60;99.90
25482;DHT22;13395;50.752;4.268;2022-12-18T06:38:03;-5.60;99.90
25482;DHT22;13395;50.752;4.268;2022-12-18T06:40:29;-5.50;99.90
25482;DHT22;13395;50.752;4.268;2022-12-18T06:42:55;-5.60;99.90
25482;DHT22;13395;50.752;4.268;2022-12-18T06:45:21;-5.70;99.90
25482;DHT22;13395;50.752;4.268;2022-12-18T06:47:46;-5.70;99.90
25482;DHT22;13395;50.752;4.268;2022-12-18T06:50:13;-5.70;99.90
25482;DHT22;13395;50.752;4.268;2022-12-18T06:52:39;-5.60;99.90
25482;DHT22;13395;50.752;4.268;2022-12-18T06:55:06;-5.60;99.90
25482;DHT22;13395;50.752;4.268;2022-12-18T06:57:33;-5.50;99.90
25482;DHT22;13395;50.752;4.268;2022-12-18T06:59:59;-5.40;99.90
25482;DHT22;13395;50.752;4.268;2022-12-18T07:02:25;-5.30;99.90
25482;DHT22;13395;50.752;4.268;2022-12-18T07:04:50;-5.30;99.90
25482;DHT22;13395;50.752;4.268;2022-12-18T07:07:16;-5.20;99.90
25482;DHT22;13395;50.752;4.268;2022-12-18T07:09:41;-5.00;99.90
25482;DHT22;13395;50.752;4.268;2022-12-18T07:12:07;-4.90;99.90
25482;DHT22;13395;50.752;4.268;2022-12-18T07:14:33;-4.90;99.90
25482;DHT22;13395;50.752;4.268;2022-12-18T07:16:59;-4.90;99.90
25482;DHT22;13395;50.752;4.268;2022-12-18T07:19:24;-4.90;99.90
25482;DHT22;13395;50.752;4.268;2022-12-18T07:21:50;-4.80;99.90
25482;DHT22;13395;50.752;4.268;2022-12-18T07:24:16;-4.80;99.90
25482;DHT22;13395;50.752;4.268;2022-12-18T07:26:42;-4.90;99.90
25482;DHT22;13395;50.752;4.268;2022-12-18T07:29:07;-4.90;99.90
25482;DHT22;13395;50.752;4.268;2022-12-18T07:31:33;-4.90;99.90
25482;DHT22;13395;50.752;4.268;2022-12-18T07:33:59;-4.90;99.90
25482;DHT22;13395;50.752;4.268;2022-12-18T07:36:24;-5.00;99.90
25482;DHT22;13395;50.752;4.268;2022-12-18T07:38:50;-5.10;99.90
25482;DHT22;13395;50.752;4.268;2022-12-18T07:41:18;-5.10;99.90
25482;DHT22;13395;50.752;4.268;2022-12-18T07:43:44;-5.10;99.90
25482;DHT22;13395;50.752;4.268;2022-12-18T07:46:11;-5.20;99.90
25482;DHT22;13395;50.752;4.268;2022-12-18T07:48:39;-5.20;99.90
25482;DHT22;13395;50.752;4.268;2022-12-18T07:51:06;-5.20;99.90
25482;DHT22;13395;50.752;4.268;2022-12-18T07:53:33;-5.20;99.90
25482;DHT22;13395;50.752;4.268;2022-12-18T07:56:01;-5.20;99.90
25482;DHT22;13395;50.752;4.268;2022-12-18T07:58:28;-5.10;99.90
25482;DHT22;13395;50.752;4.268;2022-12-18T08:00:53;-5.20;99.90
25482;DHT22;13395;50.752;4.268;2022-12-18T08:03:20;-5.10;99.90
25482;DHT22;13395;50.752;4.268;2022-12-18T08:05:46;-5.10;99.90
25482;DHT22;13395;50.752;4.268;2022-12-18T08:08:11;-5.20;99.90
25482;DHT22;13395;50.752;4.268;2022-12-18T08:10:37;-5.10;99.90
25482;DHT22;13395;50.752;4.268;2022-12-18T08:13:03;-5.10;99.90
25482;DHT22;13395;50.752;4.268;2022-12-18T08:15:29;-5.00;99.90
25482;DHT22;13395;50.752;4.268;2022-12-18T08:17:57;-4.90;99.90
25482;DHT22;13395;50.752;4.268;2022-12-18T08:20:23;-4.90;99.90
25482;DHT22;13395;50.752;4.268;2022-12-18T08:22:48;-4.70;99.90
25482;DHT22;13395;50.752;4.268;2022-12-18T08:25:14;-4.50;99.90
25482;DHT22;13395;50.752;4.268;2022-12-18T08:27:40;-4.40;99.90
25482;DHT22;13395;50.752;4.268;2022-12-18T08:30:06;-3.90;99.90
25482;DHT22;13395;50.752;4.268;2022-12-18T08:32:32;-3.40;99.90
25482;DHT22;13395;50.752;4.268;2022-12-18T08:34:58;-3.20;99.90
25482;DHT22;13395;50.752;4.268;2022-12-18T08:37:24;-2.90;99.90
25482;DHT22;13395;50.752;4.268;2022-12-18T08:39:50;-2.70;99.90
25482;DHT22;13395;50.752;4.268;2022-12-18T08:42:15;-2.40;99.90
25482;DHT22;13395;50.752;4.268;2022-12-18T08:44:59;-2.30;99.90
25482;DHT22;13395;50.752;4.268;2022-12-18T08:47:25;-2.20;99.90
25482;DHT22;13395;50.752;4.268;2022-12-18T08:49:51;-2.00;99.90
25482;DHT22;13395;50.752;4.268;2022-12-18T08:52:17;-2.00;99.90
25482;DHT22;13395;50.752;4.268;2022-12-18T08:54:42;-2.00;99.90
25482;DHT22;13395;50.752;4.268;2022-12-18T08:57:08;-1.80;99.90
25482;DHT22;13395;50.752;4.268;2022-12-18T08:59:34;-1.70;99.90
25482;DHT22;13395;50.752;4.268;2022-12-18T09:01:59;-1.60;99.90
25482;DHT22;13395;50.752;4.268;2022-12-18T09:04:25;-1.30;99.90
25482;DHT22;13395;50.752;4.268;2022-12-18T09:06:50;-1.10;99.90
25482;DHT22;13395;50.752;4.268;2022-12-18T09:09:16;-1.00;99.90
25482;DHT22;13395;50.752;4.268;2022-12-18T09:11:42;-0.90;99.90
25482;DHT22;13395;50.752;4.268;2022-12-18T09:14:09;-0.80;99.90
25482;DHT22;13395;50.752;4.268;2022-12-18T09:16:34;-0.60;99.90
25482;DHT22;13395;50.752;4.268;2022-12-18T09:19:01;-0.50;99.90
25482;DHT22;13395;50.752;4.268;2022-12-18T09:21:33;-0.20;99.90
25482;DHT22;13395;50.752;4.268;2022-12-18T09:23:59;0.00;99.90
25482;DHT22;13395;50.752;4.268;2022-12-18T09:26:25;0.10;99.90
25482;DHT22;13395;50.752;4.268;2022-12-18T09:28:51;0.10;99.90
25482;DHT22;13395;50.752;4.268;2022-12-18T09:31:19;0.00;99.90
25482;DHT22;13395;50.752;4.268;2022-12-18T09:33:45;-0.10;99.90
25482;DHT22;13395;50.752;4.268;2022-12-18T09:36:13;0.10;99.90
25482;DHT22;13395;50.752;4.268;2022-12-18T09:38:39;0.40;99.90
25482;DHT22;13395;50.752;4.268;2022-12-18T09:41:37;0.50;99.90
25482;DHT22;13395;50.752;4.268;2022-12-18T09:46:44;0.60;99.90
25482;DHT22;13395;50.752;4.268;2022-12-18T09:49:16;0.70;99.90
25482;DHT22;13395;50.752;4.268;2022-12-18T09:54:38;0.60;99.90
25482;DHT22;13395;50.752;4.268;2022-12-18T09:57:05;0.80;99.90
25482;DHT22;13395;50.752;4.268;2022-12-18T09:59:38;0.90;99.90
25482;DHT22;13395;50.752;4.268;2022-12-18T10:02:22;0.80;99.90
25482;DHT22;13395;50.752;4.268;2022-12-18T10:05:16;1.00;99.90
25482;DHT22;13395;50.752;4.268;2022-12-18T10:08:05;0.90;99.90
25482;DHT22;13395;50.752;4.268;2022-12-18T10:10:52;0.90;99.90
25482;DHT22;13395;50.752;4.268;2022-12-18T10:13:35;1.10;99.90
25482;DHT22;13395;50.752;4.268;2022-12-18T10:21:45;0.90;99.90
25482;DHT22;13395;50.752;4.268;2022-12-18T10:26:53;0.80;99.90
25482;DHT22;13395;50.752;4.268;2022-12-18T10:29:21;0.90;99.90
25482;DHT22;13395;50.752;4.268;2022-12-18T10:31:47;1.00;99.90
25482;DHT22;13395;50.752;4.268;2022-12-18T10:34:13;1.00;99.90
25482;DHT22;13395;50.752;4.268;2022-12-18T10:36:39;1.00;99.90
25482;DHT22;13395;50.752;4.268;2022-12-18T10:39:17;1.00;99.90
25482;DHT22;13395;50.752;4.268;2022-12-18T10:41:43;1.00;99.90
25482;DHT22;13395;50.752;4.268;2022-12-18T10:44:21;1.10;99.90
25482;DHT22;13395;50.752;4.268;2022-12-18T10:46:55;1.20;99.90
25482;DHT22;13395;50.752;4.268;2022-12-18T10:49:29;1.40;99.90
25482;DHT22;13395;50.752;4.268;2022-12-18T10:52:15;1.40;99.90
25482;DHT22;13395;50.752;4.268;2022-12-18T10:54:50;1.40;99.90
25482;DHT22;13395;50.752;4.268;2022-12-18T11:00:28;1.70;99.90
25482;DHT22;13395;50.752;4.268;2022-12-18T11:02:54;1.90;99.90
25482;DHT22;13395;50.752;4.268;2022-12-18T11:05:34;1.80;99.90
25482;DHT22;13395;50.752;4.268;2022-12-18T11:08:02;1.70;99.90
25482;DHT22;13395;50.752;4.268;2022-12-18T11:10:32;1.90;99.90
25482;DHT22;13395;50.752;4.268;2022-12-18T11:13:19;2.00;99.90
25482;DHT22;13395;50.752;4.268;2022-12-18T11:15:46;2.10;99.90
25482;DHT22;13395;50.752;4.268;2022-12-18T11:18:34;2.10;99.90
25482;DHT22;13395;50.752;4.268;2022-12-18T11:23:28;2.20;99.90
25482;DHT22;13395;50.752;4.268;2022-12-18T11:26:00;2.30;99.90
25482;DHT22;13395;50.752;4.268;2022-12-18T11:28:46;2.40;99.90
25482;DHT22;13395;50.752;4.268;2022-12-18T11:36:14;2.60;99.90
25482;DHT22;13395;50.752;4.268;2022-12-18T11:38:43;2.70;99.90
25482;DHT22;13395;50.752;4.268;2022-12-18T11:41:46;2.80;99.90
25482;DHT22;13395;50.752;4.268;2022-12-18T11:44:55;2.90;99.90
25482;DHT22;13395;50.752;4.268;2022-12-18T11:47:39;2.80;99.90
25482;DHT22;13395;50.752;4.268;2022-12-18T11:50:17;2.70;99.90
25482;DHT22;13395;50.752;4.268;2022-12-18T11:52:43;2.80;99.90
25482;DHT22;13395;50.752;4.268;2022-12-18T11:55:14;2.50;99.90
25482;DHT22;13395;50.752;4.268;2022-12-18T11:58:42;2.50;99.90
25482;DHT22;13395;50.752;4.268;2022-12-18T12:20:01;2.30;99.90
25482;DHT22;13395;50.752;4.268;2022-12-18T12:30:34;2.40;99.90
25482;DHT22;13395;50.752;4.268;2022-12-18T12:33:04;2.50;99.90
25482;DHT22;13395;50.752;4.268;2022-12-18T12:35:45;2.50;99.90
25482;DHT22;13395;50.752;4.268;2022-12-18T12:40:46;2.40;99.90
25482;DHT22;13395;50.752;4.268;2022-12-18T12:46:06;2.20;99.90
25482;DHT22;13395;50.752;4.268;2022-12-18T12:51:37;2.30;99.90
25482;DHT22;13395;50.752;4.268;2022-12-18T12:54:06;2.30;99.90
25482;DHT22;13395;50.752;4.268;2022-12-18T12:56:43;2.50;99.90
25482;DHT22;13395;50.752;4.268;2022-12-18T12:59:35;2.60;99.90
25482;DHT22;13395;50.752;4.268;2022-12-18T13:04:56;2.80;99.90
25482;DHT22;13395;50.752;4.268;2022-12-18T13:12:59;2.50;99.90
25482;DHT22;13395;50.752;4.268;2022-12-18T13:18:54;2.60;99.90
25482;DHT22;13395;50.752;4.268;2022-12-18T13:21:28;2.70;99.90
25482;DHT22;13395;50.752;4.268;2022-12-18T13:23:55;2.60;99.90
25482;DHT22;13395;50.752;4.268;2022-12-18T13:26:29;2.60;99.90
25482;DHT22;13395;50.752;4.268;2022-12-18T13:28:58;2.60;99.90
25482;DHT22;13395;50.752;4.268;2022-12-18T13:36:47;2.70;99.90
25482;DHT22;13395;50.752;4.268;2022-12-18T13:41:48;2.70;99.90
25482;DHT22;13395;50.752;4.268;2022-12-18T13:46:58;2.80;99.90
25482;DHT22;13395;50.752;4.268;2022-12-18T13:51:56;2.90;99.90
25482;DHT22;13395;50.752;4.268;2022-12-18T13:54:39;2.80;99.90
25482;DHT22;13395;50.752;4.268;2022-12-18T13:59:57;2.50;99.90
25482;DHT22;13395;50.752;4.268;2022-12-18T14:02:25;2.50;99.90
25482;DHT22;13395;50.752;4.268;2022-12-18T14:04:52;2.40;99.90
25482;DHT22;13395;50.752;4.268;2022-12-18T14:07:23;2.40;99.90
25482;DHT22;13395;50.752;4.268;2022-12-18T14:10:00;2.30;99.90
25482;DHT22;13395;50.752;4.268;2022-12-18T14:12:33;2.30;99.90
25482;DHT22;13395;50.752;4.268;2022-12-18T14:17:56;2.40;99.90
25482;DHT22;13395;50.752;4.268;2022-12-18T14:20:24;2.40;99.90
25482;DHT22;13395;50.752;4.268;2022-12-18T14:22:50;2.40;99.90
25482;DHT22;13395;50.752;4.268;2022-12-18T14:27:51;2.50;99.90
25482;DHT22;13395;50.752;4.268;2022-12-18T14:35:27;2.60;99.90
25482;DHT22;13395;50.752;4.268;2022-12-18T14:37:52;2.60;99.90
25482;DHT22;13395;50.752;4.268;2022-12-18T14:40:18;2.80;99.90
25482;DHT22;13395;50.752;4.268;2022-12-18T14:42:44;2.60;99.90
25482;DHT22;13395;50.752;4.268;2022-12-18T14:45:41;2.50;99.90
25482;DHT22;13395;50.752;4.268;2022-12-18T14:48:18;2.50;99.90
25482;DHT22;13395;50.752;4.268;2022-12-18T14:50:44;2.40;99.90
25482;DHT22;13395;50.752;4.268;2022-12-18T14:53:43;2.40;99.90
25482;DHT22;13395;50.752;4.268;2022-12-18T14:56:15;2.40;99.90
25482;DHT22;13395;50.752;4.268;2022-12-18T14:59:01;2.70;99.90
25482;DHT22;13395;50.752;4.268;2022-12-18T15:01:31;2.60;99.90
25482;DHT22;13395;50.752;4.268;2022-12-18T15:03:59;2.60;99.90
25482;DHT22;13395;50.752;4.268;2022-12-18T15:08:57;2.60;99.90
25482;DHT22;13395;50.752;4.268;2022-12-18T15:11:34;2.50;99.90
25482;DHT22;13395;50.752;4.268;2022-12-18T15:14:24;2.40;99.90
25482;DHT22;13395;50.752;4.268;2022-12-18T15:16:57;2.50;99.90
25482;DHT22;13395;50.752;4.268;2022-12-18T15:19:35;2.40;99.90
25482;DHT22;13395;50.752;4.268;2022-12-18T15:22:02;2.40;99.90
25482;DHT22;13395;50.752;4.268;2022-12-18T15:24:31;2.30;99.90
25482;DHT22;13395;50.752;4.268;2022-12-18T15:26:58;2.30;99.90
25482;DHT22;13395;50.752;4.268;2022-12-18T15:29:23;2.40;99.90
25482;DHT22;13395;50.752;4.268;2022-12-18T15:32:20;2.20;99.90
25482;DHT22;13395;50.752;4.268;2022-12-18T15:34:45;2.30;99.90
25482;DHT22;13395;50.752;4.268;2022-12-18T15:37:11;2.30;99.90
25482;DHT22;13395;50.752;4.268;2022-12-18T15:39:36;2.40;99.90
25482;DHT22;13395;50.752;4.268;2022-12-18T15:42:02;2.40;99.90
25482;DHT22;13395;50.752;4.268;2022-12-18T15:44:46;2.30;99.90
25482;DHT22;13395;50.752;4.268;2022-12-18T15:47:12;2.30;99.90
25482;DHT22;13395;50.752;4.268;2022-12-18T15:49:39;2.10;99.90
25482;DHT22;13395;50.752;4.268;2022-12-18T15:52:05;2.20;99.90
25482;DHT22;13395;50.752;4.268;2022-12-18T15:54:31;2.10;99.90
25482;DHT22;13395;50.752;4.268;2022-12-18T15:57:15;2.10;99.90
25482;DHT22;13395;50.752;4.268;2022-12-18T15:59:51;2.20;99.90
25482;DHT22;13395;50.752;4.268;2022-12-18T16:02:19;2.30;99.90
25482;DHT22;13395;50.752;4.268;2022-12-18T16:04:45;2.30;99.90
25482;DHT22;13395;50.752;4.268;2022-12-18T16:07:11;2.20;99.90
25482;DHT22;13395;50.752;4.268;2022-12-18T16:09:37;2.40;99.90
25482;DHT22;13395;50.752;4.268;2022-12-18T16:12:25;2.40;99.90
25482;DHT22;13395;50.752;4.268;2022-12-18T16:14:51;2.50;99.90
25482;DHT22;13395;50.752;4.268;2022-12-18T16:17:16;2.60;99.90
25482;DHT22;13395;50.752;4.268;2022-12-18T16:19:42;2.70;99.90
25482;DHT22;13395;50.752;4.268;2022-12-18T16:22:22;2.70;99.90
25482;DHT22;13395;50.752;4.268;2022-12-18T16:24:50;2.60;99.90
25482;DHT22;13395;50.752;4.268;2022-12-18T16:27:15;2.70;99.90
25482;DHT22;13395;50.752;4.268;2022-12-18T16:29:41;2.70;99.90
25482;DHT22;13395;50.752;4.268;2022-12-18T16:32:16;2.80;99.90
25482;DHT22;13395;50.752;4.268;2022-12-18T16:34:42;2.70;99.90
25482;DHT22;13395;50.752;4.268;2022-12-18T16:37:10;2.70;99.90
25482;DHT22;13395;50.752;4.268;2022-12-18T16:39:37;2.70;99.90
25482;DHT22;13395;50.752;4.268;2022-12-18T16:42:18;2.70;99.90
25482;DHT22;13395;50.752;4.268;2022-12-18T16:44:45;2.70;99.90
25482;DHT22;13395;50.752;4.268;2022-12-18T16:47:11;2.90;99.90
25482;DHT22;13395;50.752;4.268;2022-12-18T16:49:36;2.70;99.90
25482;DHT22;13395;50.752;4.268;2022-12-18T16:52:03;2.70;99.90
25482;DHT22;13395;50.752;4.268;2022-12-18T16:54:29;2.70;99.90
25482;DHT22;13395;50.752;4.268;2022-12-18T16:56:56;2.70;99.90
25482;DHT22;13395;50.752;4.268;2022-12-18T16:59:21;2.80;99.90
25482;DHT22;13395;50.752;4.268;2022-12-18T17:01:47;2.80;99.90
25482;DHT22;13395;50.752;4.268;2022-12-18T17:04:13;2.70;99.90
25482;DHT22;13395;50.752;4.268;2022-12-18T17:06:41;2.80;99.90
25482;DHT22;13395;50.752;4.268;2022-12-18T17:09:12;2.70;99.90
25482;DHT22;13395;50.752;4.268;2022-12-18T17:11:41;2.70;99.90
25482;DHT22;13395;50.752;4.268;2022-12-18T17:14:15;2.70;99.90
25482;DHT22;13395;50.752;4.268;2022-12-18T17:16:41;2.60;99.90
25482;DHT22;13395;50.752;4.268;2022-12-18T17:19:07;2.70;99.90
25482;DHT22;13395;50.752;4.268;2022-12-18T17:21:33;2.80;99.90
25482;DHT22;13395;50.752;4.268;2022-12-18T17:23:59;2.80;99.90
25482;DHT22;13395;50.752;4.268;2022-12-18T17:26:25;2.80;99.90
25482;DHT22;13395;50.752;4.268;2022-12-18T17:28:50;3.10;99.90
25482;DHT22;13395;50.752;4.268;2022-12-18T17:31:21;3.00;99.90
25482;DHT22;13395;50.752;4.268;2022-12-18T17:33:47;2.90;99.90
25482;DHT22;13395;50.752;4.268;2022-12-18T17:36:14;2.90;99.90
25482;DHT22;13395;50.752;4.268;2022-12-18T17:38:40;2.80;99.90
25482;DHT22;13395;50.752;4.268;2022-12-18T17:41:09;2.80;99.90
25482;DHT22;13395;50.752;4.268;2022-12-18T17:43:35;2.80;99.90
25482;DHT22;13395;50.752;4.268;2022-12-18T17:46:05;2.90;99.90
25482;DHT22;13395;50.752;4.268;2022-12-18T17:48:31;3.00;99.90